Enterprise, Illinois
Current Conditions -  °F | °C
As of 12:55 PM on Monday 20 Oct 2014 (Local Time) from KFWC Reporting Station
Clear Clear  
Wind Chill: 71°   Ceiling: Unl
Heat Index: 71°   Visibility: 10mi
Dew Point: 53°   Wind: 5mph
Humidity: 54%   Direction: 260°W
Pressure: 29.92"   Gusts: NA
Location:  38.514°N, 88.3637°W
Report Text: KFWC 201755Z AUTO 26004KT 10SM CLR 22/12 A2992 RMK AO1 T02150119 10215 20097
Loading
Personal Weather Stations






























Interactive Weather Map
Tropical Storm Tracking
New forecast layout! Learn more

10-Day Weather Forecast

Advertisements
Track Severe Weather on mobile